Time;durP1;ratioP1;P1;durP2;ratioP2;P2;SDS_P1;SDS_P2;PMS_P1;PMS_P2;Temp;Humidity;BMP_temperature;BMP_pressure;BME280_temperature;BME280_humidity;BME280_pressure;Samples;Min_cycle;Max_cycle;Signal;HPM_P1;HPM_P2
2022/12/10 00:01:36;;;;;;;9.43;6.90;;;;;;;21.75;42.60;94390.97;6278761;27;103546;-66
2022/12/10 00:04:39;;;;;;;7.57;6.63;;;;;;;21.77;42.97;94398.63;6288307;27;104191;-66
2022/12/10 00:07:49;;;;;;;6.93;6.23;;;;;;;21.77;43.00;94395.97;6289428;27;103468;-66
2022/12/10 00:10:52;;;;;;;7.10;6.40;;;;;;;21.77;42.82;94390.63;6288904;27;103318;-67
2022/12/10 00:13:56;;;;;;;9.27;6.27;;;;;;;21.75;43.15;94376.84;6279311;27;104456;-65
2022/12/10 00:16:59;;;;;;;7.50;6.17;;;;;;;21.75;43.16;94374.97;6289013;27;103098;-66
2022/12/10 00:20:02;;;;;;;8.13;7.17;;;;;;;21.73;42.99;94371.06;6288817;27;103093;-65
2022/12/10 00:23:06;;;;;;;7.67;6.33;;;;;;;21.74;43.06;94376.06;6286598;27;103178;-66
2022/12/10 00:26:11;;;;;;;8.77;6.63;;;;;;;21.70;43.40;94361.06;6280337;27;103683;-66
2022/12/10 00:29:14;;;;;;;7.80;6.90;;;;;;;21.75;43.11;94363.53;6287322;27;103039;-66
2022/12/10 00:32:17;;;;;;;8.10;6.17;;;;;;;21.73;43.39;94361.19;6288787;27;104495;-66
2022/12/10 00:35:20;;;;;;;8.97;6.30;;;;;;;21.76;43.44;94365.09;6279944;27;104363;-67
2022/12/10 00:38:25;;;;;;;7.03;6.00;;;;;;;21.75;43.83;94372.31;6287253;27;103917;-67
2022/12/10 00:41:28;;;;;;;7.53;6.07;;;;;;;21.75;43.88;94374.97;6286643;27;103254;-67
2022/12/10 00:44:31;;;;;;;8.67;5.57;;;;;;;21.73;43.55;94371.84;6288242;27;103688;-66
2022/12/10 00:47:34;;;;;;;8.30;6.03;;;;;;;21.74;43.88;94372.63;6276396;27;103104;-67
2022/12/10 00:50:37;;;;;;;6.27;5.60;;;;;;;21.74;43.42;94380.63;6287418;27;104105;-66
2022/12/10 00:53:43;;;;;;;6.47;5.87;;;;;;;21.73;43.52;94379.06;6286661;27;103179;-65
2022/12/10 00:56:47;;;;;;;7.10;6.00;;;;;;;21.73;43.90;94371.06;6287135;27;102874;-66
2022/12/10 00:59:50;;;;;;;7.30;5.60;;;;;;;21.72;43.76;94366.84;6275883;27;104309;-66
2022/12/10 01:02:54;;;;;;;8.73;5.17;;;;;;;21.73;43.78;94377.19;6287987;27;103565;-66
2022/12/10 01:05:57;;;;;;;6.60;5.60;;;;;;;21.73;43.62;94387.84;6287580;27;103293;-68
2022/12/10 01:09:04;;;;;;;6.23;5.10;;;;;;;21.72;43.63;94364.97;6284904;27;103081;-66
2022/12/10 01:12:07;;;;;;;8.00;6.10;;;;;;;21.74;43.60;94389.41;6281164;27;103499;-67
2022/12/10 01:15:10;;;;;;;7.00;5.83;;;;;;;21.73;43.82;94376.41;6287623;27;103197;-67
2022/12/10 01:18:13;;;;;;;6.43;5.80;;;;;;;21.73;43.84;94381.72;6287206;27;104697;-67
2022/12/10 01:21:19;;;;;;;6.43;5.80;;;;;;;21.73;43.60;94357.75;6279051;27;104415;-67
2022/12/10 01:24:27;;;;;;;8.90;5.60;;;;;;;21.71;43.40;94363.41;6286336;27;103254;-66
2022/12/10 01:27:30;;;;;;;6.07;5.57;;;;;;;21.72;43.13;94359.63;6286858;27;104372;-66
2022/12/10 01:30:34;;;;;;;5.50;5.00;;;;;;;21.73;43.56;94353.22;6286153;27;102836;-64
2022/12/10 01:33:37;;;;;;;7.47;5.87;;;;;;;21.74;43.70;94340.69;6276684;27;104278;-65
2022/12/10 01:36:43;;;;;;;5.47;4.97;;;;;;;21.75;43.89;94344.91;6286977;27;103146;-65
2022/12/10 01:39:47;;;;;;;6.10;5.00;;;;;;;21.73;43.69;94349.78;6286524;27;103316;-66
2022/12/10 01:42:50;;;;;;;7.60;5.43;;;;;;;21.75;43.80;94347.56;6286243;27;103346;-66
2022/12/10 01:45:54;;;;;;;5.63;5.00;;;;;;;21.77;44.02;94350.69;6275948;27;103191;-66
2022/12/10 01:48:58;;;;;;;6.00;4.90;;;;;;;21.77;44.51;94350.69;6286359;27;102989;-65
2022/12/10 01:52:02;;;;;;;6.50;4.97;;;;;;;21.76;44.18;94327.81;6286186;27;103012;-65
2022/12/10 01:55:25;;;;;;;5.43;4.93;;;;;;;21.69;44.14;94328.34;6275842;27;103690;-67
2022/12/10 01:58:28;;;;;;;6.50;4.90;;;;;;;21.77;44.77;94345.38;6285267;27;104121;-67
2022/12/10 02:01:39;;;;;;;5.77;4.73;;;;;;;21.76;44.73;94341.13;6285250;27;103089;-65
2022/12/10 02:04:51;;;;;;;6.43;5.20;;;;;;;21.73;45.10;94339.13;6286726;27;102989;-64
2022/12/10 02:08:11;;;;;;;7.60;4.93;;;;;;;21.77;44.77;94340.81;6275452;27;103927;-66
2022/12/10 02:11:20;;;;;;;6.67;5.07;;;;;;;21.77;44.48;94329.38;6284764;27;103221;-65
2022/12/10 02:14:30;;;;;;;6.10;4.83;;;;;;;21.78;45.32;94347.69;6286577;27;102678;-67
2022/12/10 02:17:39;;;;;;;5.30;4.80;;;;;;;21.77;45.05;94350.69;6281693;27;103096;-66
2022/12/10 02:20:47;;;;;;;5.93;4.90;;;;;;;21.69;45.03;94328.34;6280238;27;103242;-66
2022/12/10 02:23:55;;;;;;;5.67;5.10;;;;;;;21.75;44.95;94358.22;6285939;27;103555;-65
2022/12/10 02:27:06;;;;;;;5.60;4.90;;;;;;;21.76;45.30;94349.13;6285571;27;103412;-66
2022/12/10 02:30:11;;;;;;;6.43;4.60;;;;;;;21.74;44.75;94338.00;6274405;27;103349;-65
2022/12/10 02:33:17;;;;;;;5.43;4.77;;;;;;;21.75;44.82;94336.91;6284851;27;103051;-65
2022/12/10 02:36:23;;;;;;;5.77;5.00;;;;;;;21.73;44.79;94323.16;6286628;27;104224;-65
2022/12/10 02:39:33;;;;;;;5.40;4.90;;;;;;;21.73;45.36;94305.28;6285183;27;103175;-66
2022/12/10 02:42:40;;;;;;;7.93;4.90;;;;;;;21.75;45.03;94312.94;6276563;27;103093;-66
2022/12/10 02:45:46;;;;;;;4.50;4.10;;;;;;;21.73;44.84;94307.16;6286315;27;103658;-66
2022/12/10 02:48:51;;;;;;;6.17;4.97;;;;;;;21.73;44.89;94297.28;6285779;27;103206;-67
2022/12/10 02:51:54;;;;;;;5.47;4.90;;;;;;;21.74;45.00;94300.72;6281426;27;103206;-66
2022/12/10 02:54:57;;;;;;;6.33;4.60;;;;;;;21.73;45.02;94312.50;6280557;27;103937;-65
2022/12/10 02:58:12;;;;;;;7.07;5.33;;;;;;;21.73;44.99;94301.84;6285911;27;103178;-65
2022/12/10 03:01:26;;;;;;;4.73;4.33;;;;;;;21.73;45.24;94317.81;6285495;27;102674;-64
2022/12/10 03:04:37;;;;;;;6.20;4.90;;;;;;;21.73;44.70;94321.25;6274683;27;103152;-63
2022/12/10 03:07:45;;;;;;;5.70;4.53;;;;;;;21.74;45.15;94322.03;6289949;27;104249;-64
2022/12/10 03:10:53;;;;;;;6.53;4.30;;;;;;;21.73;44.90;94333.78;6290161;27;103333;-63
2022/12/10 03:14:01;;;;;;;4.30;3.90;;;;;;;21.73;45.09;94321.25;6290021;27;103076;-64
2022/12/10 03:17:07;;;;;;;4.00;3.60;;;;;;;21.69;45.20;94315.03;6278588;27;103177;-65
2022/12/10 03:20:13;;;;;;;6.30;4.70;;;;;;;21.71;45.27;94320.03;6290283;27;102857;-64
2022/12/10 03:23:19;;;;;;;5.43;4.40;;;;;;;21.74;44.65;94303.41;6288808;27;103134;-65
2022/12/10 03:26:24;;;;;;;4.97;4.53;;;;;;;21.75;45.20;94337.69;6284208;27;103129;-64
2022/12/10 03:29:34;;;;;;;5.87;4.60;;;;;;;21.76;45.12;94307.28;6284692;27;105143;-64
2022/12/10 03:32:38;;;;;;;4.93;4.03;;;;;;;21.74;44.98;94301.50;6289251;27;103353;-64
2022/12/10 03:35:42;;;;;;;7.43;5.00;;;;;;;21.70;44.74;94295.28;6288745;27;104027;-64
2022/12/10 03:38:45;;;;;;;4.73;4.13;;;;;;;21.72;44.57;94306.38;6278400;27;104087;-64
2022/12/10 03:41:48;;;;;;;5.27;3.93;;;;;;;21.70;44.74;94308.59;6288184;27;103064;-65
2022/12/10 03:44:52;;;;;;;4.67;3.90;;;;;;;21.74;44.87;94303.41;6289442;27;103283;-64
2022/12/10 03:47:57;;;;;;;4.60;3.73;;;;;;;21.76;44.86;94306.50;6288233;27;103186;-64
2022/12/10 03:51:00;;;;;;;5.40;3.93;;;;;;;21.74;44.64;94312.16;6279973;27;104079;-63
2022/12/10 03:54:03;;;;;;;3.83;3.50;;;;;;;21.72;44.73;94301.06;6288355;27;103071;-64
2022/12/10 03:57:06;;;;;;;4.60;3.80;;;;;;;21.68;44.61;94299.38;6288645;27;103956;-63
2022/12/10 04:00:10;;;;;;;5.83;4.13;;;;;;;21.73;44.77;94297.28;6288481;27;107018;-64
2022/12/10 04:03:15;;;;;;;3.60;3.30;;;;;;;21.73;44.84;94277.88;6278717;27;103245;-64
2022/12/10 04:06:20;;;;;;;4.43;4.03;;;;;;;21.72;44.56;94273.66;6287814;27;103071;-64
2022/12/10 04:09:23;;;;;;;4.43;4.03;;;;;;;21.73;44.68;94281.31;6288423;27;103212;-64
2022/12/10 04:12:26;;;;;;;4.67;4.17;;;;;;;21.75;44.63;94281.00;6278088;27;103890;-65
2022/12/10 04:18:52;;;;;;;5.67;3.80;;;;;;;21.66;44.23;94269.59;6287344;27;103859;-65
2022/12/10 04:28:44;;;;;;;5.50;3.97;;;;;;;21.73;44.18;94286.63;6287477;27;103140;-64
2022/12/10 04:31:47;;;;;;;4.00;3.60;;;;;;;21.74;44.43;94274.88;6287144;27;103289;-64
2022/12/10 04:34:51;;;;;;;4.57;3.77;;;;;;;21.73;44.53;94280.53;6283810;27;103669;-65
2022/12/10 04:37:54;;;;;;;3.97;3.63;;;;;;;21.71;44.52;94285.41;6282261;27;104550;-65
2022/12/10 04:40:57;;;;;;;3.43;3.13;;;;;;;21.74;44.16;94287.41;6287537;27;103248;-64
2022/12/10 04:44:00;;;;;;;4.50;3.50;;;;;;;21.67;43.98;94284.47;6287956;27;103171;-65
2022/12/10 04:47:06;;;;;;;4.23;3.83;;;;;;;21.72;44.43;94298.41;6278020;27;104248;-65
2022/12/10 04:50:10;;;;;;;3.90;3.50;;;;;;;21.71;44.18;94302.16;6287717;27;103074;-64
2022/12/10 04:53:13;;;;;;;3.77;3.47;;;;;;;21.74;44.53;94308.72;6287366;27;102980;-64
2022/12/10 04:56:16;;;;;;;4.70;3.93;;;;;;;21.72;44.62;94308.25;6288028;27;103222;-66
2022/12/10 04:59:20;;;;;;;3.87;3.57;;;;;;;21.73;44.17;94307.16;6277982;27;103746;-64
2022/12/10 05:02:23;;;;;;;3.90;3.17;;;;;;;21.74;44.15;94308.72;6286375;27;103160;-64
2022/12/10 05:05:27;;;;;;;4.23;3.53;;;;;;;21.72;44.29;94302.94;6287603;27;103078;-65
2022/12/10 05:08:31;;;;;;;4.77;3.73;;;;;;;21.73;44.33;94296.50;6285270;27;103248;-63
2022/12/10 05:11:35;;;;;;;4.10;3.80;;;;;;;21.73;44.09;94301.84;6276973;27;103548;-65
2022/12/10 05:14:38;;;;;;;5.90;4.10;;;;;;;21.69;44.25;94295.59;6287281;27;103238;-65
2022/12/10 05:17:41;;;;;;;4.90;3.10;;;;;;;21.66;44.16;94297.00;6286559;27;103155;-65
2022/12/10 05:20:46;;;;;;;3.60;3.30;;;;;;;21.72;44.08;94298.41;6281707;27;103115;-65
2022/12/10 05:23:50;;;;;;;3.23;2.93;;;;;;;21.68;44.22;94288.72;6281152;27;103958;-65
2022/12/10 05:26:53;;;;;;;4.30;3.47;;;;;;;21.68;43.96;94283.38;6286551;27;103252;-65
2022/12/10 05:29:58;;;;;;;4.13;3.70;;;;;;;21.68;44.51;94270.06;6286460;27;103206;-65
2022/12/10 05:33:01;;;;;;;3.53;3.23;;;;;;;21.68;44.66;94270.84;6274785;27;103564;-65
2022/12/10 05:36:06;;;;;;;3.60;3.23;;;;;;;21.68;44.43;94267.41;6286170;27;104196;-64
2022/12/10 05:39:11;;;;;;;3.93;3.23;;;;;;;21.73;44.36;94278.66;6284638;27;105146;-62
2022/12/10 05:42:14;;;;;;;4.60;3.27;;;;;;;21.87;45.08;94297.09;6285512;27;102989;-65
2022/12/10 05:45:17;;;;;;;6.00;3.60;;;;;;;21.84;44.64;94294.28;6274921;27;103205;-68
2022/12/10 05:48:20;;;;;;;8.20;4.63;;;;;;;21.79;44.51;94295.22;6279223;27;102929;-64
2022/12/10 05:51:26;;;;;;;6.70;4.30;;;;;;;21.77;44.69;94302.75;6277619;27;104452;-66
2022/12/10 05:54:29;;;;;;;14.63;4.90;;;;;;;21.80;44.85;94307.44;6278963;27;103782;-67
2022/12/10 05:57:32;;;;;;;12.30;5.33;;;;;;;21.76;44.73;94301.19;6278729;27;105250;-67
2022/12/10 06:00:35;;;;;;;10.80;5.13;;;;;;;21.74;44.16;94306.06;6282891;27;104320;-67
2022/12/10 06:03:39;;;;;;;6.90;4.67;;;;;;;21.70;44.05;94307.81;6283813;27;103568;-68
2022/12/10 06:06:43;;;;;;;11.93;4.80;;;;;;;21.71;44.19;94330.69;6271844;27;103248;-68
2022/12/10 06:09:47;;;;;;;6.47;5.07;;;;;;;21.73;43.73;94323.16;6278486;27;104418;-67
2022/12/10 06:12:50;;;;;;;14.37;7.23;;;;;;;21.71;43.92;94320.81;6284634;27;104201;-67
2022/12/10 06:15:53;;;;;;;13.43;9.60;;;;;;;21.72;43.81;94310.94;6285412;27;103117;-68
2022/12/10 06:18:56;;;;;;;13.50;9.53;;;;;;;21.73;44.27;94293.84;6273620;27;103408;-67
2022/12/10 06:22:01;;;;;;;11.90;9.40;;;;;;;21.47;43.91;94265.47;6285594;27;104359;-68
2022/12/10 06:25:05;;;;;;;14.47;10.17;;;;;;;21.68;43.55;94300.16;6285752;27;104186;-67
2022/12/10 06:28:09;;;;;;;13.37;10.53;;;;;;;21.69;43.78;94314.25;6285941;27;105263;-67
2022/12/10 06:31:13;;;;;;;15.87;11.67;;;;;;;21.64;43.67;94301.09;6273871;27;103408;-67
2022/12/10 06:34:16;;;;;;;13.13;11.83;;;;;;;21.71;43.37;94302.16;6285444;27;103045;-68
2022/12/10 06:37:21;;;;;;;12.87;11.57;;;;;;;21.66;43.78;94304.97;6285530;27;103188;-67
2022/12/10 06:40:24;;;;;;;14.10;12.80;;;;;;;21.72;44.08;94313.59;6285288;27;103218;-66
2022/12/10 06:43:29;;;;;;;13.13;11.83;;;;;;;21.71;43.76;94312.81;6283022;27;103272;-67
2022/12/10 06:46:33;;;;;;;12.53;11.17;;;;;;;21.63;43.68;94287.00;6289286;27;103407;-66
2022/12/10 06:49:36;;;;;;;13.20;11.63;;;;;;;21.69;43.95;94285.72;6289233;27;103294;-67
2022/12/10 06:52:40;;;;;;;12.50;11.17;;;;;;;21.66;43.70;94293.56;6279538;27;103703;-67
2022/12/10 06:55:43;;;;;;;13.43;11.83;;;;;;;21.66;43.75;94301.53;6288386;27;102985;-67
2022/12/10 06:58:47;;;;;;;14.83;13.43;;;;;;;21.66;43.67;94325.50;6288330;27;103250;-68
2022/12/10 07:01:51;;;;;;;18.47;15.30;;;;;;;21.67;43.04;94324.41;6286701;27;103031;-67
2022/12/10 07:04:56;;;;;;;18.60;16.93;;;;;;;21.67;42.87;94311.09;6278598;27;104005;-67
2022/12/10 07:08:00;;;;;;;15.43;12.00;;;;;;;21.47;42.29;94318.69;6288152;27;103234;-69
2022/12/10 07:11:05;;;;;;;15.17;12.87;;;;;;;21.32;42.68;94329.84;6289013;27;104109;-67
2022/12/10 07:14:08;;;;;;;14.70;10.53;;;;;;;21.28;42.80;94326.28;6289739;27;103310;-66
2022/12/10 07:17:11;;;;;;;17.20;12.00;;;;;;;21.24;42.72;94335.22;6279275;27;103192;-68
2022/12/10 07:20:14;;;;;;;12.60;10.93;;;;;;;21.21;42.71;94316.13;6289145;27;102996;-67
2022/12/10 07:23:19;;;;;;;11.57;9.83;;;;;;;21.25;42.79;94323.47;6289462;27;103023;-66
2022/12/10 07:26:22;;;;;;;14.53;9.50;;;;;;;21.34;42.82;94301.06;6284652;27;103193;-66
2022/12/10 07:29:27;;;;;;;12.07;9.40;;;;;;;21.51;42.23;94297.56;6284724;27;103238;-68
2022/12/10 07:32:30;;;;;;;15.07;9.63;;;;;;;21.64;42.17;94285.88;6290888;27;103273;-68
2022/12/10 07:35:34;;;;;;;12.03;10.83;;;;;;;21.74;42.21;94292.75;6289986;27;102729;-68
2022/12/10 07:38:40;;;;;;;13.77;10.30;;;;;;;21.82;41.87;94291.94;6278894;27;103407;-67
2022/12/10 07:41:43;;;;;;;14.17;10.40;;;;;;;21.77;42.20;94281.44;6288215;27;103308;-68
2022/12/10 07:44:46;;;;;;;20.97;10.50;;;;;;;21.64;42.61;94293.09;6289068;27;103681;-68
2022/12/10 07:47:51;;;;;;;20.03;10.37;;;;;;;21.48;43.49;94285.66;6289345;27;105619;-68
2022/12/10 07:50:57;;;;;;;25.40;10.77;;;;;;;21.54;43.86;94298.81;6277001;27;103079;-67
2022/12/10 07:54:02;;;;;;;13.33;9.53;;;;;;;21.54;43.64;94285.50;6288411;27;102790;-67
2022/12/10 07:57:05;;;;;;;12.03;8.70;;;;;;;21.50;43.01;94315.38;6288723;27;104164;-66
2022/12/10 08:00:10;;;;;;;10.87;8.50;;;;;;;21.43;43.85;94293.81;6288844;27;103106;-67
2022/12/10 08:03:14;;;;;;;10.23;8.60;;;;;;;21.45;43.41;94296.94;6279254;27;104758;-65
2022/12/10 08:06:21;;;;;;;11.57;8.20;;;;;;;21.46;42.53;94287.06;6288528;27;103081;-66
2022/12/10 08:09:26;;;;;;;10.47;7.97;;;;;;;21.43;42.61;94261.88;6288012;27;102708;-66
2022/12/10 08:12:29;;;;;;;14.07;8.00;;;;;;;21.48;43.17;94253.69;6276291;27;104338;-67
2022/12/10 08:15:32;;;;;;;10.87;7.90;;;;;;;21.69;43.17;94266.31;6261821;27;103077;-68
2022/12/10 08:18:36;;;;;;;10.73;7.80;;;;;;;21.92;43.28;94277.47;6276920;27;104168;-68
2022/12/10 08:21:39;;;;;;;12.80;8.77;;;;;;;21.89;43.85;94262.94;6287563;27;103227;-67
2022/12/10 08:24:43;;;;;;;16.40;9.60;;;;;;;21.96;44.32;94252.53;6278342;27;103207;-64
2022/12/10 08:27:46;;;;;;;27.33;10.13;;;;;;;22.01;43.83;94260.34;6288201;27;103566;-67
2022/12/10 08:30:49;;;;;;;38.80;12.00;;;;;;;22.07;45.58;94247.59;6287913;27;103179;-67
2022/12/10 08:33:53;;;;;;;22.70;10.90;;;;;;;22.09;45.24;94240.06;6287052;27;103036;-67
2022/12/10 08:36:56;;;;;;;31.57;12.23;;;;;;;22.14;45.64;94247.06;6267340;27;103139;-66
2022/12/10 08:40:00;;;;;;;25.93;13.40;;;;;;;22.16;45.26;94263.50;6273299;27;105177;-66
2022/12/10 08:43:03;;;;;;;28.07;14.20;;;;;;;22.17;44.90;94257.84;6284981;27;103547;-68
2022/12/10 08:46:07;;;;;;;24.73;16.20;;;;;;;22.21;45.04;94236.69;6281894;27;103391;-66
2022/12/10 08:49:11;;;;;;;25.07;17.43;;;;;;;22.19;45.16;94226.34;6275940;27;104008;-67
2022/12/10 08:52:14;;;;;;;26.63;16.70;;;;;;;22.18;44.88;94210.66;6286451;27;104166;-66
2022/12/10 08:55:18;;;;;;;23.80;16.73;;;;;;;22.11;44.70;94196.00;6284881;27;103175;-66
2022/12/10 08:58:22;;;;;;;29.27;16.30;;;;;;;22.22;44.93;94217.72;6274859;27;103099;-66
2022/12/10 09:01:25;;;;;;;22.23;17.50;;;;;;;22.21;45.26;94228.69;6284226;27;103286;-66
2022/12/10 09:04:28;;;;;;;27.20;17.40;;;;;;;22.20;44.64;94214.59;6275318;27;103098;-67
2022/12/10 09:07:31;;;;;;;20.40;17.20;;;;;;;22.21;44.52;94226.03;6283870;27;103447;-67
2022/12/10 09:10:36;;;;;;;26.13;20.00;;;;;;;22.18;44.61;94226.66;6270547;27;103439;-66
2022/12/10 09:13:39;;;;;;;26.57;19.23;;;;;;;22.15;45.08;94193.44;6280571;27;103312;-67
2022/12/10 09:16:42;;;;;;;29.10;21.70;;;;;;;22.06;44.48;94195.44;6285799;27;103171;-67
2022/12/10 09:19:45;;;;;;;31.03;22.50;;;;;;;22.04;45.20;94205.63;6284762;27;104035;-67
2022/12/10 09:22:48;;;;;;;53.63;33.13;;;;;;;22.01;45.96;94182.28;6274982;27;103457;-67
2022/12/10 09:25:53;;;;;;;42.43;33.30;;;;;;;22.13;45.62;94186.91;6285586;27;104248;-67
2022/12/10 09:28:57;;;;;;;56.20;43.30;;;;;;;22.12;46.94;94199.44;6284584;27;103264;-67
2022/12/10 09:32:00;;;;;;;56.10;43.10;;;;;;;22.04;49.22;94201.09;6282611;27;102728;-67
2022/12/10 09:35:05;;;;;;;56.03;44.20;;;;;;;22.01;49.62;94196.41;6278797;27;105977;-68
2022/12/10 09:38:09;;;;;;;57.50;45.40;;;;;;;22.02;52.51;94186.53;6298280;27;103526;-67
2022/12/10 09:41:44;;;;;;;58.63;42.97;;;;;;;21.98;54.41;94181.06;6292657;27;105210;-68
2022/12/10 09:44:58;;;;;;;47.87;41.77;;;;;;;22.00;54.53;94162.84;6277294;27;103117;-68
2022/12/10 09:48:12;;;;;;;50.00;43.80;;;;;;;21.95;53.96;94152.41;6278723;27;102965;-67
2022/12/10 09:51:22;;;;;;;54.97;42.87;;;;;;;22.03;53.81;94150.78;6286363;27;103502;-68
2022/12/10 09:54:29;;;;;;;44.73;40.10;;;;;;;22.04;54.03;94155.78;6291436;27;103182;-68
2022/12/10 09:57:39;;;;;;;45.40;37.83;;;;;;;22.07;54.36;94165.78;6301045;27;103084;-67
2022/12/10 10:00:45;;;;;;;43.17;38.43;;;;;;;22.11;53.78;94142.72;6312224;27;103051;-68
2022/12/10 10:03:48;;;;;;;41.93;35.73;;;;;;;22.05;58.22;94138.69;6290077;27;105408;-68
2022/12/10 10:06:51;;;;;;;45.00;33.80;;;;;;;21.99;58.39;94155.97;6281468;27;103077;-68
2022/12/10 10:09:58;;;;;;;37.90;33.80;;;;;;;21.95;57.85;94133.75;6294182;27;103120;-68
2022/12/10 10:13:15;;;;;;;41.57;34.90;;;;;;;22.01;58.68;94142.31;6306198;27;103334;-67
2022/12/10 10:16:24;;;;;;;36.20;32.40;;;;;;;22.02;59.97;94143.91;6307209;27;102921;-66
2022/12/10 10:19:34;;;;;;;35.77;32.10;;;;;;;22.05;62.00;94133.38;6274603;27;104121;-67
2022/12/10 10:22:37;;;;;;;35.63;31.93;;;;;;;22.13;61.67;94149.59;6286516;27;104804;-66
2022/12/10 10:25:40;;;;;;;35.30;31.80;;;;;;;22.04;57.55;94129.16;6296760;27;103225;-67
2022/12/10 10:28:45;;;;;;;37.03;32.40;;;;;;;22.08;62.01;94143.38;6291744;27;103810;-67
2022/12/10 10:32:08;;;;;;;34.83;31.13;;;;;;;22.14;62.86;94135.94;6271246;27;103573;-67
2022/12/10 10:35:22;;;;;;;33.37;30.17;;;;;;;22.21;63.09;94144.19;6287630;27;103609;-65
2022/12/10 10:38:29;;;;;;;31.57;28.13;;;;;;;22.21;60.57;94119.44;6304537;27;103269;-65
2022/12/10 10:41:37;;;;;;;40.13;28.57;;;;;;;22.30;62.26;94112.13;6281698;27;104135;-66
2022/12/10 10:44:43;;;;;;;29.30;26.30;;;;;;;22.27;62.16;94118.09;6302268;27;104200;-66
2022/12/10 10:47:46;;;;;;;29.60;26.67;;;;;;;22.33;61.63;94108.78;6284052;27;103232;-67
2022/12/10 10:50:51;;;;;;;30.13;27.30;;;;;;;22.35;61.09;94109.25;6285320;27;103108;-65
2022/12/10 10:53:55;;;;;;;30.03;25.30;;;;;;;22.34;60.21;94083.69;6273170;27;103704;-67
2022/12/10 10:56:59;;;;;;;26.40;23.90;;;;;;;22.52;59.76;94101.06;6283545;27;103183;-66
2022/12/10 11:00:07;;;;;;;29.03;24.90;;;;;;;22.56;59.29;94095.84;6285984;27;103194;-68
2022/12/10 11:03:12;;;;;;;25.63;23.10;;;;;;;22.57;58.91;94092.09;6279680;27;104265;-66
2022/12/10 11:06:15;;;;;;;26.43;22.27;;;;;;;22.56;57.93;94093.97;6273754;27;103630;-66
2022/12/10 11:09:22;;;;;;;25.83;22.80;;;;;;;22.55;58.42;94068.41;6285155;27;104473;-67
2022/12/10 11:12:34;;;;;;;23.67;21.23;;;;;;;22.61;57.30;94059.09;6284085;27;103370;-66
2022/12/10 11:15:41;;;;;;;29.30;21.10;;;;;;;22.65;57.00;94068.00;6284515;27;104182;-67
2022/12/10 11:18:54;;;;;;;27.43;21.20;;;;;;;22.62;56.79;94057.22;6275517;27;103338;-65
2022/12/10 11:22:17;;;;;;;29.03;20.80;;;;;;;22.55;55.95;94048.97;6276869;27;103033;-67
2022/12/10 11:25:35;;;;;;;26.77;20.20;;;;;;;22.46;56.33;94035.72;6269221;27;103067;-66
2022/12/10 11:28:51;;;;;;;23.30;20.17;;;;;;;22.41;55.26;94011.97;6275113;27;103273;-67
2022/12/10 11:32:23;;;;;;;21.63;19.33;;;;;;;22.41;54.30;94014.63;6289680;27;103100;-67
2022/12/10 11:35:39;;;;;;;20.13;18.23;;;;;;;22.38;53.93;94007.31;6288826;27;103221;-68
2022/12/10 11:38:52;;;;;;;20.90;18.73;;;;;;;22.35;53.77;94015.97;6288669;27;103275;-65
2022/12/10 11:42:03;;;;;;;26.03;18.50;;;;;;;22.31;52.95;94018.50;6283075;27;104178;-67
2022/12/10 11:45:19;;;;;;;20.37;18.30;;;;;;;22.30;52.55;94021.50;6282033;27;105942;-67
2022/12/10 11:48:40;;;;;;;21.67;19.33;;;;;;;22.27;52.84;94012.28;6258059;27;103122;-66
2022/12/10 11:51:52;;;;;;;21.47;19.17;;;;;;;22.27;52.40;94019.50;6251955;27;103413;-67
2022/12/10 11:55:03;;;;;;;20.33;18.23;;;;;;;22.26;52.17;94012.63;6263775;27;104075;-66
2022/12/10 11:58:37;;;;;;;20.07;18.03;;;;;;;22.23;51.71;94005.28;6287894;27;102986;-67
2022/12/10 12:01:58;;;;;;;20.83;18.87;;;;;;;22.22;51.86;94003.75;6288960;27;104087;-66
2022/12/10 12:05:20;;;;;;;20.43;18.50;;;;;;;22.21;51.97;93997.63;6282713;27;103095;-66
2022/12/10 12:08:34;;;;;;;19.60;17.73;;;;;;;22.25;51.61;94001.19;6287875;27;104103;-66
2022/12/10 12:11:54;;;;;;;18.93;16.97;;;;;;;22.30;51.36;93994.84;6277305;27;103133;-68
2022/12/10 12:15:01;;;;;;;21.33;17.80;;;;;;;22.32;51.24;93998.72;6279048;27;103029;-67
2022/12/10 12:18:09;;;;;;;20.53;16.20;;;;;;;22.32;50.90;93995.28;6287753;27;103118;-66
2022/12/10 12:21:16;;;;;;;18.03;15.43;;;;;;;22.34;51.31;93987.72;6287781;27;103121;-67
2022/12/10 12:24:23;;;;;;;20.77;16.90;;;;;;;22.29;50.91;93979.97;6276078;27;102930;-67
2022/12/10 12:27:31;;;;;;;18.27;16.47;;;;;;;22.28;51.20;93983.75;6277848;27;103829;-66
2022/12/10 12:30:36;;;;;;;17.90;16.30;;;;;;;22.27;51.37;93968.88;6287431;27;103232;-67
2022/12/10 12:33:44;;;;;;;16.87;15.30;;;;;;;22.27;50.38;93974.19;6286231;27;103715;-67
2022/12/10 12:36:49;;;;;;;17.90;16.20;;;;;;;22.19;50.22;93956.44;6282006;27;104918;-64
2022/12/10 12:40:01;;;;;;;16.17;14.57;;;;;;;22.33;50.74;93972.84;6279871;27;103447;-65
2022/12/10 12:43:09;;;;;;;16.77;15.03;;;;;;;22.34;49.96;93948.53;6285938;27;103302;-66
2022/12/10 12:46:16;;;;;;;16.40;14.93;;;;;;;22.35;50.19;93928.00;6284321;27;103058;-64
2022/12/10 12:49:25;;;;;;;16.03;14.37;;;;;;;22.34;50.12;93929.88;6276190;27;103677;-65
2022/12/10 12:52:38;;;;;;;15.73;13.70;;;;;;;22.40;50.25;93933.13;6287156;27;104116;-65
2022/12/10 12:55:50;;;;;;;16.50;14.13;;;;;;;22.36;49.95;93925.00;6286502;27;102751;-66
2022/12/10 12:59:05;;;;;;;14.47;13.17;;;;;;;22.35;49.95;93933.34;6266139;27;103119;-66
2022/12/10 13:02:21;;;;;;;15.67;14.27;;;;;;;22.33;50.09;93925.66;6277853;27;104179;-66
2022/12/10 13:05:31;;;;;;;15.60;14.10;;;;;;;22.35;50.01;93920.03;6287839;27;104181;-65
2022/12/10 13:08:43;;;;;;;15.10;13.70;;;;;;;22.31;49.73;93914.56;6286511;27;103077;-65
2022/12/10 13:12:07;;;;;;;14.10;12.70;;;;;;;22.30;49.61;93907.69;6272384;27;103690;-65
2022/12/10 13:15:19;;;;;;;15.40;13.80;;;;;;;22.31;49.82;93922.56;6286802;27;104647;-65
2022/12/10 13:18:35;;;;;;;13.23;12.03;;;;;;;22.31;49.74;93929.78;6286747;27;103301;-66
2022/12/10 13:21:58;;;;;;;14.47;12.97;;;;;;;22.27;49.95;93905.69;6286254;27;103125;-68
2022/12/10 13:25:14;;;;;;;15.20;13.70;;;;;;;22.32;49.67;93926.00;6279459;27;103027;-66
2022/12/10 13:28:26;;;;;;;15.20;13.70;;;;;;;22.39;49.58;93921.69;6284359;27;102885;-63
2022/12/10 13:31:38;;;;;;;20.87;15.10;;;;;;;22.49;50.30;93911.66;6275912;27;103983;-63
2022/12/10 13:34:42;;;;;;;19.70;13.50;;;;;;;22.43;50.54;93879.13;6266535;27;102785;-63
2022/12/10 13:37:57;;;;;;;18.93;14.63;;;;;;;22.42;50.69;93869.56;6285256;27;103533;-64
2022/12/10 13:44:35;;;;;;;19.33;16.43;;;;;;;22.38;50.63;93868.69;6276065;27;102918;-62
2022/12/10 13:47:46;;;;;;;22.37;16.30;;;;;;;22.35;50.43;93838.16;6273793;27;104334;-68
2022/12/10 13:50:56;;;;;;;18.27;16.30;;;;;;;22.42;50.50;93850.91;6285611;27;102993;-63
2022/12/10 13:54:13;;;;;;;19.33;16.20;;;;;;;22.41;50.37;93852.81;6283583;27;103185;-63
2022/12/10 13:57:35;;;;;;;23.70;17.13;;;;;;;22.22;50.46;93841.97;6274548;27;103418;-63
2022/12/10 14:00:49;;;;;;;24.30;17.73;;;;;;;22.35;50.02;93864.81;6280119;27;103089;-64
2022/12/10 14:04:18;;;;;;;20.00;15.33;;;;;;;22.37;49.63;93867.94;6281549;27;103168;-62
2022/12/10 14:07:22;;;;;;;19.90;16.40;;;;;;;22.38;50.08;93850.03;6285423;27;104075;-64
2022/12/10 14:10:31;;;;;;;23.87;17.03;;;;;;;22.27;49.74;93841.72;6272551;27;104226;-65
2022/12/10 14:13:40;;;;;;;17.30;15.57;;;;;;;22.39;50.45;93849.72;6284598;27;105732;-66
2022/12/10 14:16:43;;;;;;;17.43;15.63;;;;;;;22.39;49.88;93854.25;6280982;27;102959;-65
2022/12/10 14:19:50;;;;;;;17.83;15.97;;;;;;;22.40;50.20;93845.16;6282442;27;104774;-67
2022/12/10 14:23:32;;;;;;;18.17;16.27;;;;;;;22.40;49.89;93850.47;6280481;27;103196;-65
2022/12/10 14:26:20;;;;;;;22.33;16.30;;;;;;;22.45;49.93;93842.25;6287735;27;103049;-65
2022/12/10 14:29:25;;;;;;;18.93;15.93;;;;;;;22.41;49.60;93831.47;6285892;27;103234;-66
2022/12/10 14:32:34;;;;;;;16.70;15.20;;;;;;;22.41;49.67;93831.47;6276427;27;103490;-63